createdAt,value
2023-02-08T00:01:09.907Z,102888.00
2023-02-08T00:03:38.092Z,102885.41
2023-02-08T00:06:07.173Z,102898.03
2023-02-08T00:08:35.876Z,102896.28
2023-02-08T00:11:04.591Z,102890.97
2023-02-08T00:13:33.036Z,102895.50
2023-02-08T00:16:01.433Z,102881.44
2023-02-08T00:18:31.256Z,102878.44
2023-02-08T00:20:59.448Z,102882.09
2023-02-08T00:23:28.139Z,102877.97
2023-02-08T00:25:56.178Z,102881.59
2023-02-08T00:28:24.451Z,102872.75
2023-02-08T00:30:53.421Z,102863.00
2023-02-08T00:33:21.450Z,102869.47
2023-02-08T00:35:50.898Z,102860.50
2023-02-08T00:38:20.791Z,102864.13
2023-02-08T00:40:48.998Z,102847.94
2023-02-08T00:43:16.985Z,102846.03
2023-02-08T00:45:45.032Z,102788.91
2023-02-08T00:48:13.014Z,102858.56
2023-02-08T00:50:41.304Z,102854.97
2023-02-08T00:53:10.833Z,102862.13
2023-02-08T00:55:38.846Z,102854.97
2023-02-08T00:58:07.147Z,102861.25
2023-02-08T01:00:35.097Z,102864.66
2023-02-08T01:03:03.577Z,102865.59
2023-02-08T01:05:31.562Z,102872.75
2023-02-08T01:07:59.608Z,102860.19
2023-02-08T01:10:28.978Z,102868.28
2023-02-08T01:12:58.383Z,102863.88
2023-02-08T01:15:26.659Z,102854.97
2023-02-08T01:17:55.964Z,102854.63
2023-02-08T01:20:24.803Z,102851.22
2023-02-08T01:22:52.842Z,102866.59
2023-02-08T01:25:20.834Z,102855.78
2023-02-08T01:27:50.222Z,102853.94
2023-02-08T01:30:18.728Z,102857.69
2023-02-08T01:32:46.736Z,102853.28
2023-02-08T01:35:14.732Z,102847.88
2023-02-08T01:37:42.674Z,102853.44
2023-02-08T01:40:11.888Z,102842.66
2023-02-08T01:42:39.790Z,102847.34
2023-02-08T01:45:29.827Z,102835.78
2023-02-08T01:48:11.131Z,102799.16
2023-02-08T01:50:46.851Z,102835.69
2023-02-08T01:53:15.516Z,102835.69
2023-02-08T01:55:48.722Z,102839.19
2023-02-08T01:58:19.604Z,102845.34
2023-02-08T02:00:50.759Z,102829.94
2023-02-08T02:03:20.466Z,102833.41
2023-02-08T02:05:51.075Z,102846.81
2023-02-08T02:08:19.430Z,102844.13
2023-02-08T02:10:50.590Z,102853.09
2023-02-08T02:13:21.990Z,102849.41
2023-02-08T02:15:52.324Z,102850.38
2023-02-08T02:18:24.744Z,102855.56
2023-02-08T02:21:23.086Z,102845.00
2023-02-08T02:24:12.489Z,102852.03
2023-02-08T02:27:19.276Z,102863.00
2023-02-08T02:30:19.899Z,102876.56
2023-02-08T02:33:01.142Z,102862.50
2023-02-08T02:35:38.028Z,102872.06
2023-02-08T02:38:14.765Z,102864.06
2023-02-08T02:40:52.530Z,102864.25
2023-02-08T02:43:42.022Z,102864.41
2023-02-08T02:46:20.733Z,102853.81
2023-02-08T02:48:54.294Z,102847.66
2023-02-08T02:51:28.432Z,102845.06
2023-02-08T02:54:00.499Z,102835.56
2023-02-08T02:56:32.546Z,102844.34
2023-02-08T02:59:06.106Z,102853.41
2023-02-08T03:01:34.756Z,102857.84
2023-02-08T03:04:14.173Z,102851.50
2023-02-08T03:06:59.453Z,102842.53
2023-02-08T03:09:40.458Z,102842.34
2023-02-08T03:12:21.336Z,102852.28
2023-02-08T03:14:59.016Z,102842.34
2023-02-08T03:17:38.829Z,102845.91
2023-02-08T03:20:11.992Z,102854.00
2023-02-08T03:22:46.804Z,102853.03
2023-02-08T03:25:22.268Z,102862.88
2023-02-08T03:27:59.405Z,102855.56
2023-02-08T03:30:34.663Z,102860.09
2023-02-08T03:33:07.987Z,102860.19
2023-02-08T03:35:43.048Z,102864.59
2023-02-08T03:38:15.783Z,102858.25
2023-02-08T03:40:47.703Z,102867.88
2023-02-08T03:43:19.163Z,102879.75
2023-02-08T03:45:51.909Z,102871.06
2023-02-08T03:48:22.876Z,102873.69
2023-02-08T03:50:55.003Z,102873.69
2023-02-08T03:53:25.696Z,102878.28
2023-02-08T03:55:59.707Z,102887.25
2023-02-08T03:58:33.602Z,102886.38
2023-02-08T04:01:07.056Z,102888.28
2023-02-08T04:03:37.536Z,102885.78
2023-02-08T04:06:07.712Z,102888.66
2023-02-08T04:08:35.736Z,102889.63
2023-02-08T04:11:03.714Z,102887.00
2023-02-08T04:13:31.734Z,102886.16
2023-02-08T04:15:59.758Z,102895.03
2023-02-08T04:18:27.778Z,102895.81
2023-02-08T04:20:56.159Z,102896.75
2023-02-08T04:23:25.543Z,102891.97
2023-02-08T04:25:53.475Z,102888.41
2023-02-08T04:28:21.432Z,102897.44
2023-02-08T04:30:49.435Z,102901.09
2023-02-08T04:33:17.419Z,102903.72
2023-02-08T04:35:45.439Z,102909.88
2023-02-08T04:38:13.354Z,102913.56
2023-02-08T04:40:42.858Z,102904.50
2023-02-08T04:43:10.975Z,102904.41
2023-02-08T04:45:38.934Z,102911.53
2023-02-08T04:48:07.447Z,102919.44
2023-02-08T04:50:35.567Z,102900.25
2023-02-08T04:53:03.498Z,102910.59
2023-02-08T04:55:31.532Z,102919.34
2023-02-08T04:58:01.158Z,102914.81
2023-02-08T05:00:29.422Z,102916.63
2023-02-08T05:02:59.322Z,102915.81
2023-02-08T05:05:28.299Z,102900.16
2023-02-08T05:07:56.196Z,102907.88
2023-02-08T05:10:24.256Z,102902.38
2023-02-08T05:12:52.315Z,102896.31
2023-02-08T05:15:21.953Z,102901.63
2023-02-08T05:17:49.939Z,102885.59
2023-02-08T05:20:18.087Z,102893.63
2023-02-08T05:22:46.167Z,102872.22
2023-02-08T05:25:14.346Z,102877.31
2023-02-08T05:27:42.396Z,102883.59
2023-02-08T05:30:11.549Z,102884.47
2023-02-08T05:32:41.004Z,102888.81
2023-02-08T05:35:09.376Z,102896.81
2023-02-08T05:37:37.345Z,102881.38
2023-02-08T05:40:05.853Z,102882.16
2023-02-08T05:42:33.797Z,102892.09
2023-02-08T05:45:01.787Z,102894.69
2023-02-08T05:47:29.780Z,102897.31
2023-02-08T05:49:59.149Z,102895.38
2023-02-08T05:52:27.162Z,102889.13
2023-02-08T05:54:55.277Z,102880.06
2023-02-08T05:57:23.197Z,102873.69
2023-02-08T05:59:51.173Z,102872.75
2023-02-08T06:02:19.210Z,102871.00
2023-02-08T06:04:47.226Z,102862.03
2023-02-08T06:07:16.829Z,102848.94
2023-02-08T06:09:45.106Z,102864.53
2023-02-08T06:12:13.903Z,102859.16
2023-02-08T06:14:41.961Z,102854.63
2023-02-08T06:17:09.906Z,102853.75
2023-02-08T06:19:38.007Z,102865.31
2023-02-08T06:22:05.932Z,102858.09
2023-02-08T06:24:35.318Z,102864.25
2023-02-08T06:27:03.239Z,102860.78
2023-02-08T06:29:31.274Z,102868.81
2023-02-08T06:31:59.350Z,102869.75
2023-02-08T06:34:27.351Z,102881.25
2023-02-08T06:36:55.294Z,102864.25
2023-02-08T06:39:23.386Z,102881.25
2023-02-08T06:41:52.769Z,102887.41
2023-02-08T06:44:20.741Z,102882.19
2023-02-08T06:46:49.079Z,102885.84
2023-02-08T06:49:17.168Z,102887.59
2023-02-08T06:51:45.343Z,102874.09
2023-02-08T06:54:13.365Z,102878.56
2023-02-08T06:56:41.343Z,102882.09
2023-02-08T06:59:11.085Z,102880.25
2023-02-08T07:01:39.404Z,102852.28
2023-02-08T07:04:07.419Z,102879.31
2023-02-08T07:06:35.467Z,102887.41
2023-02-08T07:09:04.263Z,102885.78
2023-02-08T07:11:32.611Z,102887.50
2023-02-08T07:14:00.630Z,102892.13
2023-02-08T07:16:30.043Z,102888.47
2023-02-08T07:18:58.048Z,102898.38
2023-02-08T07:21:26.034Z,102906.38
2023-02-08T07:23:54.037Z,102898.28
2023-02-08T07:26:22.109Z,102911.72
2023-02-08T07:28:50.276Z,102907.19
2023-02-08T07:31:18.725Z,102899.97
2023-02-08T07:33:48.120Z,102895.50
2023-02-08T07:36:16.124Z,102892.88
2023-02-08T07:38:44.181Z,102895.59
2023-02-08T07:41:13.879Z,102897.34
2023-02-08T07:43:42.999Z,102897.44
2023-02-08T07:46:13.087Z,102896.47
2023-02-08T07:48:41.395Z,102898.22
2023-02-08T07:51:12.162Z,102917.09
2023-02-08T07:53:40.682Z,102926.16
2023-02-08T07:56:10.349Z,102917.28
2023-02-08T07:58:38.747Z,102919.09
2023-02-08T08:01:20.124Z,102920.94
2023-02-08T08:03:50.665Z,102917.66
2023-02-08T08:06:21.023Z,102919.50
2023-02-08T08:08:49.065Z,102907.91
2023-02-08T08:11:18.382Z,102913.13
2023-02-08T08:13:46.505Z,102908.59
2023-02-08T08:16:15.074Z,102903.03
2023-02-08T08:18:43.203Z,102895.88
2023-02-08T08:21:11.315Z,102908.78
2023-02-08T08:23:40.797Z,102901.84
2023-02-08T08:26:10.250Z,102894.88
2023-02-08T08:28:38.853Z,102897.75
2023-02-08T08:31:11.242Z,102899.59
2023-02-08T08:33:39.276Z,102904.31
2023-02-08T08:36:08.027Z,102911.47
2023-02-08T08:38:37.086Z,102904.19
2023-02-08T08:41:10.187Z,102910.59
2023-02-08T08:43:38.320Z,102914.34
2023-02-08T08:46:07.495Z,102902.66
2023-02-08T08:48:35.684Z,102909.19
2023-02-08T08:51:04.272Z,102908.25
2023-02-08T08:53:32.337Z,102919.63
2023-02-08T08:56:00.557Z,102913.19
2023-02-08T08:58:30.464Z,102883.47
2023-02-08T09:00:58.924Z,102907.59
2023-02-08T09:03:27.275Z,102903.84
2023-02-08T09:05:55.380Z,102900.28
2023-02-08T09:08:23.591Z,102913.22
2023-02-08T09:10:51.627Z,102912.25
2023-02-08T09:13:21.324Z,102908.72
2023-02-08T09:15:50.965Z,102916.50
2023-02-08T09:18:19.120Z,102920.88
2023-02-08T09:20:47.163Z,102919.28
2023-02-08T09:23:15.226Z,102924.63
2023-02-08T09:25:43.248Z,102930.78
2023-02-08T09:28:11.345Z,102929.84
2023-02-08T09:30:39.308Z,102935.06
2023-02-08T09:33:08.765Z,102924.44
2023-02-08T09:35:36.787Z,102925.38
2023-02-08T09:38:05.488Z,102927.31
2023-02-08T09:40:42.837Z,102935.22
2023-02-08T09:43:16.479Z,102934.34
2023-02-08T09:45:59.326Z,102929.84
2023-02-08T09:48:33.836Z,102930.00
2023-02-08T09:51:07.785Z,102946.22
2023-02-08T09:53:41.248Z,102950.84
2023-02-08T09:56:13.888Z,102953.53
2023-02-08T09:58:45.007Z,102950.56
2023-02-08T10:01:19.780Z,102937.94
2023-02-08T10:03:51.542Z,102933.84
2023-02-08T10:06:21.917Z,102950.97
2023-02-08T10:08:52.516Z,102944.34
2023-02-08T10:11:30.770Z,102953.81
2023-02-08T10:14:25.454Z,102958.06
2023-02-08T10:17:03.529Z,102955.00
2023-02-08T10:19:48.833Z,102948.34
2023-02-08T10:22:30.960Z,102937.34
2023-02-08T10:25:12.989Z,102926.44
2023-02-08T10:27:49.908Z,102919.22
2023-02-08T10:30:29.421Z,102923.56
2023-02-08T10:33:02.956Z,102923.19
2023-02-08T10:35:37.252Z,102918.53
2023-02-08T10:38:29.689Z,102906.41
2023-02-08T10:41:04.099Z,102895.84
2023-02-08T10:43:41.255Z,102915.34
2023-02-08T10:46:17.119Z,102924.16
2023-02-08T10:49:00.020Z,102926.56
2023-02-08T10:51:29.885Z,102907.94
2023-02-08T10:53:58.632Z,102921.03
2023-02-08T10:56:44.524Z,102921.63
2023-02-08T10:59:22.726Z,102915.25
2023-02-08T11:01:51.356Z,102911.59
2023-02-08T11:04:19.825Z,102925.94
2023-02-08T11:06:51.795Z,102918.72
2023-02-08T11:09:29.219Z,102912.38
2023-02-08T11:12:00.933Z,102903.34
2023-02-08T11:14:46.092Z,102902.34
2023-02-08T11:17:29.477Z,102902.28
2023-02-08T11:19:59.556Z,102902.34
2023-02-08T11:22:32.227Z,102893.28
2023-02-08T11:25:02.273Z,102895.13
2023-02-08T11:27:35.376Z,102898.56
2023-02-08T11:30:21.010Z,102896.63
2023-02-08T11:32:50.782Z,102891.16
2023-02-08T11:35:25.718Z,102889.97
2023-02-08T11:37:57.493Z,102888.81
2023-02-08T11:40:29.651Z,102881.88
2023-02-08T11:42:58.331Z,102873.34
2023-02-08T11:45:30.133Z,102877.03
2023-02-08T11:47:59.264Z,102870.19
2023-02-08T11:50:31.540Z,102867.47
2023-02-08T11:53:02.770Z,102881.78
2023-02-08T11:55:34.140Z,102879.06
2023-02-08T11:58:03.992Z,102869.09
2023-02-08T12:00:34.155Z,102874.44
2023-02-08T12:03:04.839Z,102877.31
2023-02-08T12:05:42.663Z,102873.66
2023-02-08T12:08:21.758Z,102875.50
2023-02-08T12:11:07.257Z,102872.03
2023-02-08T12:13:49.397Z,102872.22
2023-02-08T12:16:51.075Z,102874.16
2023-02-08T12:19:48.351Z,102872.53
2023-02-08T12:22:21.353Z,102869.13
2023-02-08T12:24:56.490Z,102880.72
2023-02-08T12:27:41.095Z,102865.19
2023-02-08T12:30:20.151Z,102862.38
2023-02-08T12:33:17.240Z,102861.22
2023-02-08T12:36:05.726Z,102862.06
2023-02-08T12:39:17.743Z,102853.00
2023-02-08T12:41:57.826Z,102849.41
2023-02-08T12:44:36.959Z,102851.94
2023-02-08T12:47:19.046Z,102835.34
2023-02-08T12:50:00.297Z,102855.41
2023-02-08T12:52:37.740Z,102852.59
2023-02-08T12:55:14.564Z,102849.91
2023-02-08T12:57:46.254Z,102847.97
2023-02-08T13:00:21.290Z,102848.84
2023-02-08T13:02:57.764Z,102847.97
2023-02-08T13:05:31.146Z,102840.91
2023-02-08T13:08:04.971Z,102840.16
2023-02-08T13:10:37.590Z,102840.56
2023-02-08T13:13:14.955Z,102841.19
2023-02-08T13:15:46.868Z,102826.25
2023-02-08T13:18:20.406Z,102820.09
2023-02-08T13:20:52.177Z,102822.91
2023-02-08T13:23:27.279Z,102812.00
2023-02-08T13:25:59.209Z,102818.16
2023-02-08T13:28:29.428Z,102804.44
2023-02-08T13:31:02.535Z,102799.06
2023-02-08T13:33:37.179Z,102795.38
2023-02-08T13:36:06.108Z,102783.78
2023-02-08T13:38:36.586Z,102778.38
2023-02-08T13:41:16.278Z,102780.13
2023-02-08T13:43:52.211Z,102783.16
2023-02-08T13:46:21.769Z,102778.06
2023-02-08T13:48:52.236Z,102776.09
2023-02-08T13:51:52.896Z,102772.53
2023-02-08T13:54:21.079Z,102757.28
2023-02-08T13:56:50.174Z,102758.81
2023-02-08T13:59:41.887Z,102756.88
2023-02-08T14:02:36.948Z,102744.44
2023-02-08T14:05:44.521Z,102749.72
2023-02-08T14:08:22.062Z,102745.31
2023-02-08T14:11:02.445Z,102752.09
2023-02-08T14:13:33.698Z,102749.88
2023-02-08T14:16:27.546Z,102745.53
2023-02-08T14:18:57.296Z,102747.69
2023-02-08T14:21:35.340Z,102740.56
2023-02-08T14:24:06.700Z,102743.75
2023-02-08T14:26:36.267Z,102738.75
2023-02-08T14:29:07.731Z,102738.44
2023-02-08T14:31:43.600Z,102734.09
2023-02-08T14:34:27.702Z,102732.59
2023-02-08T14:37:05.676Z,102726.41
2023-02-08T14:39:34.938Z,102720.34
2023-02-08T14:42:07.198Z,102708.66
2023-02-08T14:45:03.558Z,102708.66
2023-02-08T14:47:58.185Z,102699.13
2023-02-08T14:50:30.239Z,102711.56
2023-02-08T14:53:06.532Z,102715.25
2023-02-08T14:55:40.397Z,102718.91
2023-02-08T14:58:11.796Z,102725.06
2023-02-08T15:00:40.712Z,102723.81
2023-02-08T15:03:18.840Z,102712.63
2023-02-08T15:06:25.429Z,102708.84
2023-02-08T15:08:54.982Z,102709.91
2023-02-08T15:11:25.825Z,102708.09
2023-02-08T15:13:57.456Z,102688.91
2023-02-08T15:16:34.712Z,102709.81
2023-02-08T15:19:05.862Z,102712.50
2023-02-08T15:21:37.259Z,102714.44
2023-02-08T15:24:13.484Z,102717.16
2023-02-08T15:26:46.154Z,102708.16
2023-02-08T15:29:26.165Z,102716.28
2023-02-08T15:31:58.148Z,102717.34
2023-02-08T15:34:28.104Z,102664.44
2023-02-08T15:36:57.604Z,102719.16
2023-02-08T15:39:34.995Z,102710.19
2023-02-08T15:42:03.457Z,102706.72
2023-02-08T15:44:33.138Z,102711.06
2023-02-08T15:47:03.205Z,102669.03
2023-02-08T15:49:36.712Z,102694.88
2023-02-08T15:52:07.058Z,102686.88
2023-02-08T15:54:35.314Z,102689.78
2023-02-08T15:57:17.388Z,102676.28
2023-02-08T15:59:47.230Z,102674.75
2023-02-08T16:02:25.171Z,102683.69
2023-02-08T16:04:54.726Z,102682.06
2023-02-08T16:07:29.292Z,102678.41
2023-02-08T16:09:58.551Z,102659.41
2023-02-08T16:12:28.786Z,102679.28
2023-02-08T16:14:57.551Z,102634.63
2023-02-08T16:17:38.420Z,102669.91
2023-02-08T16:20:23.743Z,102655.34
2023-02-08T16:22:57.280Z,102665.28
2023-02-08T16:25:33.110Z,102658.81
2023-02-08T16:28:01.285Z,102658.81
2023-02-08T16:30:29.588Z,102656.88
2023-02-08T16:32:57.923Z,102629.28
2023-02-08T16:35:30.543Z,102637.75
2023-02-08T16:38:02.430Z,102640.47
2023-02-08T16:40:48.714Z,102634.31
2023-02-08T16:43:18.999Z,102632.75
2023-02-08T16:46:09.268Z,102628.34
2023-02-08T16:48:39.164Z,102627.47
2023-02-08T16:51:12.197Z,102632.88
2023-02-08T16:53:42.627Z,102622.94
2023-02-08T16:56:11.918Z,102632.88
2023-02-08T16:58:40.312Z,102608.09
2023-02-08T17:01:12.491Z,102611.25
2023-02-08T17:03:40.699Z,102610.59
2023-02-08T17:06:22.742Z,102612.13
2023-02-08T17:08:50.819Z,102605.66
2023-02-08T17:11:18.810Z,102605.34
2023-02-08T17:13:46.855Z,102604.47
2023-02-08T17:16:19.461Z,102596.50
2023-02-08T17:18:48.686Z,102596.56
2023-02-08T17:21:18.674Z,102599.28
2023-02-08T17:23:47.550Z,102597.56
2023-02-08T17:26:17.714Z,102592.06
2023-02-08T17:28:46.190Z,102564.25
2023-02-08T17:31:15.287Z,102590.41
2023-02-08T17:33:43.994Z,102588.91
2023-02-08T17:36:13.589Z,102579.94
2023-02-08T17:38:44.309Z,102571.06
2023-02-08T17:41:15.685Z,102564.06
2023-02-08T17:43:43.666Z,102557.88
2023-02-08T17:46:11.991Z,102561.63
2023-02-08T17:48:40.094Z,102558.19
2023-02-08T17:51:10.042Z,102550.19
2023-02-08T17:53:40.818Z,102551.22
2023-02-08T17:56:13.354Z,102556.63
2023-02-08T17:58:41.626Z,102559.53
2023-02-08T18:01:11.270Z,102564.06
2023-02-08T18:03:39.339Z,102564.06
2023-02-08T18:06:07.965Z,102555.75
2023-02-08T18:08:37.432Z,102546.63
2023-02-08T18:11:06.999Z,102548.34
2023-02-08T18:13:37.867Z,102539.28
2023-02-08T18:16:10.267Z,102542.75
2023-02-08T18:18:38.691Z,102541.03
2023-02-08T18:21:11.670Z,102530.13
2023-02-08T18:23:39.762Z,102523.75
2023-02-08T18:26:09.231Z,102511.88
2023-02-08T18:28:38.818Z,102512.63
2023-02-08T18:31:08.758Z,102504.66
2023-02-08T18:33:37.686Z,102510.06
2023-02-08T18:36:07.129Z,102482.53
2023-02-08T18:38:35.147Z,102505.13
2023-02-08T18:41:03.058Z,102511.41
2023-02-08T18:43:30.927Z,102511.41
2023-02-08T18:46:02.226Z,102515.09
2023-02-08T18:48:30.950Z,102507.84
2023-02-08T18:51:00.430Z,102504.31
2023-02-08T18:53:28.774Z,102504.47
2023-02-08T18:55:57.528Z,102496.47
2023-02-08T18:58:26.278Z,102493.88
2023-02-08T19:00:55.504Z,102482.22
2023-02-08T19:03:24.807Z,102476.81
2023-02-08T19:05:52.827Z,102484.03
2023-02-08T19:08:22.253Z,102476.94
2023-02-08T19:10:50.221Z,102476.81
2023-02-08T19:13:18.246Z,102459.75
2023-02-08T19:15:46.243Z,102455.34
2023-02-08T19:18:14.188Z,102447.13
2023-02-08T19:20:43.614Z,102460.53
2023-02-08T19:23:11.489Z,102455.22
2023-02-08T19:25:40.632Z,102455.97
2023-02-08T19:28:08.722Z,102462.16
2023-02-08T19:30:36.727Z,102465.69
2023-02-08T19:33:05.000Z,102465.69
2023-02-08T19:35:38.730Z,102459.16
2023-02-08T19:38:08.066Z,102445.66
2023-02-08T19:40:35.975Z,102442.09
2023-02-08T19:43:03.874Z,102434.88
2023-02-08T19:45:31.981Z,102425.91
2023-02-08T19:47:59.958Z,102426.78
2023-02-08T19:50:27.963Z,102414.22
2023-02-08T19:52:56.805Z,102406.13
2023-02-08T19:55:26.099Z,102402.34
2023-02-08T19:57:54.150Z,102395.25
2023-02-08T20:00:24.266Z,102388.97
2023-02-08T20:02:52.617Z,102393.50
2023-02-08T20:05:20.594Z,102393.38
2023-02-08T20:07:48.599Z,102378.25
2023-02-08T20:10:16.852Z,102379.13
2023-02-08T20:12:46.219Z,102375.47
2023-02-08T20:15:14.134Z,102314.19
2023-02-08T20:17:42.448Z,102361.97
2023-02-08T20:20:11.495Z,102362.94
2023-02-08T20:22:39.443Z,102351.19
2023-02-08T20:25:08.317Z,102348.34
2023-02-08T20:27:36.263Z,102346.66
2023-02-08T20:30:06.270Z,102340.38
2023-02-08T20:32:34.333Z,102334.97
2023-02-08T20:35:02.454Z,102330.44
2023-02-08T20:37:30.605Z,102337.69
2023-02-08T20:39:58.528Z,102320.63
2023-02-08T20:42:26.676Z,102321.47
2023-02-08T20:44:54.703Z,102311.78
2023-02-08T20:47:24.068Z,102319.75
2023-02-08T20:49:52.578Z,102320.75
2023-02-08T20:52:20.654Z,102314.34
2023-02-08T20:54:48.715Z,102308.75
2023-02-08T20:57:18.193Z,102309.47
2023-02-08T20:59:46.736Z,102299.69
2023-02-08T21:02:18.776Z,102299.56
2023-02-08T21:04:48.454Z,102296.97
2023-02-08T21:07:16.548Z,102296.09
2023-02-08T21:09:44.936Z,102299.69
2023-02-08T21:12:13.007Z,102295.16
2023-02-08T21:14:43.125Z,102284.44
2023-02-08T21:17:11.823Z,102279.03
2023-02-08T21:19:40.052Z,102271.91
2023-02-08T21:22:09.339Z,102269.97
2023-02-08T21:24:37.247Z,102277.09
2023-02-08T21:27:05.373Z,102265.44
2023-02-08T21:29:33.645Z,102271.06
2023-02-08T21:32:01.705Z,102274.59
2023-02-08T21:34:29.781Z,102271.16
2023-02-08T21:36:57.740Z,102269.31
2023-02-08T21:39:27.119Z,102264.66
2023-02-08T21:41:55.503Z,102252.03
2023-02-08T21:44:23.534Z,102257.56
2023-02-08T21:46:51.584Z,102242.44
2023-02-08T21:49:37.049Z,102237.13
2023-02-08T21:52:22.724Z,102238.19
2023-02-08T21:54:53.693Z,102227.41
2023-02-08T21:57:23.395Z,102222.88
2023-02-08T21:59:53.270Z,102226.53
2023-02-08T22:02:25.911Z,102206.81
2023-02-08T22:05:12.616Z,102205.19
2023-02-08T22:07:46.056Z,102193.53
2023-02-08T22:10:17.547Z,102187.25
2023-02-08T22:12:47.242Z,102192.78
2023-02-08T22:15:17.319Z,102182.81
2023-02-08T22:17:46.134Z,102173.88
2023-02-08T22:20:15.717Z,102173.97
2023-02-08T22:22:45.414Z,102164.25
2023-02-08T22:25:15.595Z,102170.41
2023-02-08T22:27:43.694Z,102175.94
2023-02-08T22:30:14.179Z,102167.91
2023-02-08T22:32:42.491Z,102163.31
2023-02-08T22:35:11.739Z,102130.38
2023-02-08T22:37:40.262Z,102141.81
2023-02-08T22:40:09.546Z,102134.69
2023-02-08T22:42:39.257Z,102128.44
2023-02-08T22:45:07.930Z,102125.75
2023-02-08T22:47:36.061Z,102121.31
2023-02-08T22:50:04.451Z,102117.72
2023-02-08T22:52:51.006Z,102116.03
2023-02-08T22:55:19.137Z,102109.03
2023-02-08T22:57:48.807Z,102115.28
2023-02-08T23:00:18.796Z,102108.91
2023-02-08T23:02:52.622Z,102100.06
2023-02-08T23:05:33.034Z,102078.16
2023-02-08T23:08:01.078Z,102091.84
2023-02-08T23:10:29.043Z,102083.53
2023-02-08T23:12:58.440Z,102085.47
2023-02-08T23:15:26.456Z,102072.00
2023-02-08T23:17:54.683Z,102062.06
2023-02-08T23:20:22.699Z,102057.63
2023-02-08T23:22:50.762Z,102066.59
2023-02-08T23:25:19.035Z,102064.09
2023-02-08T23:27:47.005Z,102058.63
2023-02-08T23:30:17.027Z,102054.06
2023-02-08T23:32:44.984Z,102065.09
2023-02-08T23:35:13.100Z,102039.00
2023-02-08T23:37:41.062Z,102052.44
2023-02-08T23:40:10.131Z,102050.75
2023-02-08T23:42:38.179Z,102044.47
2023-02-08T23:45:07.309Z,102024.56
2023-02-08T23:47:36.745Z,102025.59
2023-02-08T23:50:05.069Z,102028.06
2023-02-08T23:52:33.204Z,102017.38
2023-02-08T23:55:01.327Z,102022.16
2023-02-08T23:57:33.549Z,102013.94
